Time;durP1;ratioP1;P1;durP2;ratioP2;P2;SDS_P1;SDS_P2;PMS_P1;PMS_P2;Temp;Humidity;BMP_temperature;BMP_pressure;BME280_temperature;BME280_humidity;BME280_pressure;Samples;Min_cycle;Max_cycle;Signal;HPM_P1;HPM_P2
2022/07/02 00:02:07;;;;;;;6.97;3.90;;;;;;;13.16;83.47;102002.44;6169874;23;20019;-86
2022/07/02 00:04:34;;;;;;;10.57;5.03;;;;;;;13.12;83.18;102002.03;6219933;23;20027;-86
2022/07/02 00:07:00;;;;;;;10.60;4.97;;;;;;;13.09;83.49;102010.56;6219182;23;20016;-86
2022/07/02 00:09:29;;;;;;;6.27;4.17;;;;;;;13.05;83.24;102005.75;6246457;23;20086;-86
2022/07/02 00:11:59;;;;;;;10.57;5.68;;;;;;;13.04;84.26;102004.09;6194921;23;20079;-86
2022/07/02 00:14:25;;;;;;;10.35;4.05;;;;;;;12.97;84.07;102004.03;6195934;23;20012;-86
2022/07/02 00:16:52;;;;;;;4.20;3.38;;;;;;;12.92;83.92;102001.09;6219756;23;20079;-86
2022/07/02 00:19:17;;;;;;;8.75;3.40;;;;;;;12.92;85.82;102009.28;6194386;23;20095;-86
2022/07/02 00:21:43;;;;;;;7.60;3.73;;;;;;;12.89;86.25;102001.47;6244808;23;20044;-86
2022/07/02 00:24:09;;;;;;;11.95;3.40;;;;;;;12.80;85.30;101998.94;6219547;23;20012;-86
2022/07/02 00:26:39;;;;;;;5.53;3.07;;;;;;;12.80;86.01;101998.09;6219450;23;20430;-86
2022/07/02 00:29:36;;;;;;;8.00;3.17;;;;;;;12.78;85.94;101994.72;6245485;23;20004;-86
2022/07/02 00:32:03;;;;;;;7.03;3.33;;;;;;;12.76;87.49;101997.66;6218092;23;20433;-86
2022/07/02 00:34:32;;;;;;;5.80;3.28;;;;;;;12.74;87.59;101998.88;6246071;23;20014;-86
2022/07/02 00:36:59;;;;;;;5.13;3.07;;;;;;;12.69;86.24;102001.41;6219942;23;20016;-86
2022/07/02 00:39:24;;;;;;;4.88;3.42;;;;;;;12.67;86.43;102000.75;6219048;23;20066;-86
2022/07/02 00:41:51;;;;;;;5.78;3.00;;;;;;;12.62;86.35;102004.06;6195405;23;20009;-86
2022/07/02 00:44:18;;;;;;;8.68;3.35;;;;;;;12.58;86.98;102010.97;6219409;23;20008;-86
2022/07/02 00:46:45;;;;;;;7.50;3.30;;;;;;;12.58;86.77;102010.97;6219494;23;20008;-86
2022/07/02 00:49:12;;;;;;;5.55;3.45;;;;;;;12.56;86.82;101997.56;6219536;23;20008;-86
2022/07/02 00:51:38;;;;;;;6.43;3.30;;;;;;;12.51;86.92;102000.03;6248724;23;20019;-85
2022/07/02 00:54:04;;;;;;;7.10;2.90;;;;;;;12.52;86.87;102001.72;6247800;23;20326;-86
2022/07/02 00:56:29;;;;;;;7.63;3.40;;;;;;;12.49;87.15;102004.00;6196260;23;20020;-86
2022/07/02 00:58:55;;;;;;;12.20;2.93;;;;;;;12.48;86.88;101992.28;6196027;23;20039;-86
2022/07/02 01:01:23;;;;;;;6.88;3.10;;;;;;;12.46;86.80;102005.25;6221580;23;20080;-86
2022/07/02 01:03:51;;;;;;;12.60;3.10;;;;;;;12.44;87.50;102005.41;6195856;23;20434;-86
2022/07/02 01:06:17;;;;;;;8.13;3.10;;;;;;;12.45;87.36;102001.66;6248100;23;20012;-86
2022/07/02 01:11:30;;;;;;;6.22;2.85;;;;;;;12.42;87.72;101999.34;6225431;23;20023;-86
2022/07/02 01:13:57;;;;;;;4.75;2.47;;;;;;;12.41;87.86;101999.56;6195986;23;20015;-86
2022/07/02 01:16:23;;;;;;;4.72;2.72;;;;;;;12.40;87.90;101989.69;6221097;23;20036;-86
2022/07/02 01:18:48;;;;;;;7.20;2.90;;;;;;;12.39;87.46;101990.75;6196655;23;20097;-86
2022/07/02 01:21:14;;;;;;;7.55;3.03;;;;;;;12.40;87.27;101986.97;6220471;23;20066;-86
2022/07/02 01:23:39;;;;;;;8.03;2.47;;;;;;;12.34;87.76;101985.06;6221577;23;20015;-86
2022/07/02 01:26:05;;;;;;;11.70;2.60;;;;;;;12.29;88.36;101985.66;6221044;23;20008;-86
2022/07/02 01:28:30;;;;;;;7.47;2.33;;;;;;;12.26;88.22;101988.78;6247926;23;20372;-86
2022/07/02 01:30:56;;;;;;;7.03;2.20;;;;;;;12.26;88.69;101995.06;6221410;23;20008;-86
2022/07/02 01:33:22;;;;;;;12.37;2.67;;;;;;;12.24;88.98;101988.97;6220711;23;20422;-86
2022/07/02 01:35:47;;;;;;;5.53;2.58;;;;;;;12.26;89.50;101997.78;6220542;23;20004;-86
2022/07/02 01:38:13;;;;;;;9.00;2.40;;;;;;;12.26;89.02;101994.22;6220581;23;20134;-85
2022/07/02 01:40:38;;;;;;;5.03;2.38;;;;;;;12.27;88.86;101994.03;6221321;23;20008;-86
2022/07/02 01:43:04;;;;;;;4.70;2.40;;;;;;;12.30;88.66;101995.50;6171527;23;20008;-86
2022/07/02 01:45:29;;;;;;;7.97;2.53;;;;;;;12.31;88.71;101996.34;6171155;23;20039;-86
2022/07/02 01:47:55;;;;;;;10.70;2.30;;;;;;;12.32;88.47;102001.59;6247843;23;20004;-86
2022/07/02 01:50:20;;;;;;;9.10;2.53;;;;;;;12.31;88.96;101994.44;6196030;23;20380;-86
2022/07/02 01:52:46;;;;;;;5.63;2.27;;;;;;;12.32;88.43;101998.03;6221186;23;20004;-86
2022/07/02 01:55:11;;;;;;;6.07;2.40;;;;;;;12.32;88.72;102000.75;6221586;23;20008;-86
2022/07/02 01:57:38;;;;;;;8.43;2.35;;;;;;;12.26;88.97;102000.50;6195734;23;20020;-86
2022/07/02 02:00:06;;;;;;;4.47;2.33;;;;;;;12.28;88.83;102003.00;6220760;23;20014;-86
2022/07/02 02:02:32;;;;;;;6.57;2.47;;;;;;;12.27;88.75;101994.03;6220289;23;20247;-86
2022/07/02 02:04:57;;;;;;;6.85;2.33;;;;;;;12.26;88.30;101992.34;6220738;23;20062;-86
2022/07/02 02:07:22;;;;;;;9.97;2.87;;;;;;;12.26;88.89;101995.06;6221104;23;20005;-86
2022/07/02 02:09:48;;;;;;;5.93;2.57;;;;;;;12.27;88.70;101990.47;6220997;23;20019;-85
2022/07/02 02:12:13;;;;;;;7.17;2.70;;;;;;;12.30;88.60;101995.50;6195874;23;20008;-86
2022/07/02 02:14:39;;;;;;;9.18;2.72;;;;;;;12.31;88.95;101996.34;6195971;23;20012;-86
2022/07/02 02:17:05;;;;;;;6.67;2.67;;;;;;;12.29;88.78;101989.22;6221390;23;20045;-86
2022/07/02 02:19:30;;;;;;;9.77;2.30;;;;;;;12.32;88.34;101985.25;6220873;23;20016;-86
2022/07/02 02:21:56;;;;;;;8.30;2.40;;;;;;;12.31;88.66;101983.56;6247720;23;20008;-85
2022/07/02 02:24:21;;;;;;;8.47;3.00;;;;;;;12.33;88.02;101980.66;6221022;23;20008;-86
2022/07/02 02:26:47;;;;;;;20.70;3.28;;;;;;;12.36;88.26;101986.53;6195965;23;20430;-86
2022/07/02 02:29:12;;;;;;;9.43;2.77;;;;;;;12.39;87.97;101991.59;6195740;23;20065;-86
2022/07/02 02:31:38;;;;;;;8.27;2.70;;;;;;;12.43;88.25;101989.28;6220721;23;20000;-86
2022/07/02 02:34:03;;;;;;;13.38;2.70;;;;;;;12.49;87.64;101988.53;6195594;23;20407;-86
2022/07/02 02:36:29;;;;;;;7.17;2.73;;;;;;;12.57;87.24;101995.69;6220362;23;20090;-86
2022/07/02 02:38:55;;;;;;;6.38;2.78;;;;;;;12.63;86.85;101992.97;6248275;23;20464;-85
2022/07/02 02:41:20;;;;;;;9.67;2.80;;;;;;;12.72;87.03;101998.25;6247575;23;20034;-86
2022/07/02 02:43:46;;;;;;;6.33;3.10;;;;;;;12.77;86.33;101990.31;6220201;23;20016;-85
2022/07/02 02:46:11;;;;;;;5.88;2.67;;;;;;;12.80;85.56;101981.78;6220163;23;20008;-86
2022/07/02 02:48:38;;;;;;;4.90;2.70;;;;;;;12.82;85.62;101990.56;6220596;23;20007;-86
2022/07/02 02:51:05;;;;;;;6.40;2.92;;;;;;;12.86;84.73;101988.25;6247377;23;20004;-85
2022/07/02 02:53:31;;;;;;;6.20;2.67;;;;;;;12.85;84.69;101987.44;6220538;23;20004;-86
2022/07/02 02:55:58;;;;;;;7.97;2.60;;;;;;;12.87;84.72;101996.22;6220713;23;20008;-86
2022/07/02 02:58:24;;;;;;;5.47;2.92;;;;;;;12.84;85.32;101991.19;6247377;23;20016;-86
2022/07/02 03:00:49;;;;;;;4.27;2.90;;;;;;;12.82;84.31;101993.28;6195503;23;20008;-86
2022/07/02 03:03:15;;;;;;;10.77;2.70;;;;;;;12.75;84.74;101986.97;6195487;23;20016;-86
2022/07/02 03:05:40;;;;;;;10.77;3.33;;;;;;;12.68;84.90;101984.22;6246962;23;20231;-86
2022/07/02 03:08:05;;;;;;;12.47;2.57;;;;;;;12.62;85.04;101996.75;6247313;23;20486;-86
2022/07/02 03:10:31;;;;;;;7.70;2.87;;;;;;;12.57;85.35;101992.94;6220464;23;20086;-85
2022/07/02 03:12:56;;;;;;;8.05;2.72;;;;;;;12.53;85.68;101997.94;6220357;23;20012;-86
2022/07/02 03:15:22;;;;;;;7.43;2.50;;;;;;;12.46;86.08;102005.25;6219865;23;20008;-86
2022/07/02 03:17:47;;;;;;;6.20;2.73;;;;;;;12.44;86.66;102015.47;6194930;23;20012;-85
2022/07/02 03:20:13;;;;;;;7.07;2.83;;;;;;;12.41;86.92;102013.16;6195392;23;20493;-85
2022/07/02 03:22:40;;;;;;;5.10;2.65;;;;;;;12.39;86.85;102010.63;6195587;23;20351;-87
2022/07/02 03:25:07;;;;;;;8.73;2.70;;;;;;;12.40;86.55;102017.78;6246517;23;20000;-86
2022/07/02 03:27:33;;;;;;;9.77;2.60;;;;;;;12.41;86.93;102018.59;6220863;23;20008;-86
2022/07/02 03:29:58;;;;;;;7.47;3.13;;;;;;;12.37;87.06;102015.44;6220138;23;20004;-86
2022/07/02 03:32:25;;;;;;;8.77;3.20;;;;;;;12.41;86.43;102015.88;6220003;23;20008;-86
2022/07/02 03:34:52;;;;;;;10.50;3.00;;;;;;;12.43;86.67;102017.38;6195149;23;20008;-86
2022/07/02 03:37:18;;;;;;;9.47;2.80;;;;;;;12.47;86.67;102025.97;6220042;23;20312;-86
2022/07/02 03:39:43;;;;;;;5.93;2.72;;;;;;;12.50;86.46;102024.75;6221047;23;20012;-85
2022/07/02 03:42:09;;;;;;;5.97;2.83;;;;;;;12.53;86.46;102024.34;6194962;23;20012;-86
2022/07/02 03:44:35;;;;;;;7.72;2.72;;;;;;;12.50;85.90;102031.00;6195067;23;20022;-86
2022/07/02 03:47:00;;;;;;;7.18;3.10;;;;;;;12.49;85.98;102036.66;6220009;23;20102;-86
2022/07/02 03:49:26;;;;;;;8.27;2.70;;;;;;;12.49;86.33;102034.78;6195069;23;20012;-86
2022/07/02 03:51:51;;;;;;;4.97;2.63;;;;;;;12.50;86.32;102035.63;6219948;23;20439;-86
2022/07/02 03:54:17;;;;;;;7.00;2.55;;;;;;;12.55;86.42;102036.72;6194828;23;20422;-86
2022/07/02 03:56:42;;;;;;;5.80;2.50;;;;;;;12.65;86.08;102033.63;6195102;23;20009;-85
2022/07/02 03:59:08;;;;;;;11.40;3.40;;;;;;;12.70;86.06;102025.69;6220036;23;20016;-86
2022/07/02 04:01:33;;;;;;;5.33;2.90;;;;;;;12.73;85.50;102030.75;6219996;23;20000;-85
2022/07/02 04:03:58;;;;;;;5.27;2.70;;;;;;;12.75;85.38;102025.91;6219515;23;20324;-86
2022/07/02 04:06:24;;;;;;;4.63;2.80;;;;;;;12.79;85.62;102029.94;6219773;23;20018;-86
2022/07/02 04:08:49;;;;;;;8.57;3.17;;;;;;;12.76;85.57;102032.22;6219901;23;20011;-85
2022/07/02 04:11:14;;;;;;;14.60;2.93;;;;;;;12.72;85.54;102033.66;6194434;23;20008;-86
2022/07/02 04:13:40;;;;;;;9.13;3.23;;;;;;;12.65;85.58;102039.06;6194962;23;20016;-86
2022/07/02 04:16:05;;;;;;;9.37;3.00;;;;;;;12.56;85.70;102038.41;6219869;23;20389;-85
2022/07/02 04:18:31;;;;;;;5.97;3.00;;;;;;;12.50;86.65;102036.44;6194453;23;20039;-86
2022/07/02 04:20:56;;;;;;;7.70;3.03;;;;;;;12.50;86.67;102036.44;6246369;23;20079;-85
2022/07/02 04:23:22;;;;;;;5.50;2.77;;;;;;;12.51;86.55;102029.97;6194364;23;20446;-86
2022/07/02 04:25:47;;;;;;;5.10;3.07;;;;;;;12.56;86.72;102029.38;6170322;23;20008;-86
2022/07/02 04:28:12;;;;;;;8.68;3.72;;;;;;;12.62;87.64;102040.31;6194689;23;20398;-85
2022/07/02 04:30:38;;;;;;;9.77;3.43;;;;;;;12.68;86.26;102038.69;6194355;23;20087;-86
2022/07/02 04:33:03;;;;;;;6.73;3.50;;;;;;;12.70;86.09;102028.41;6246222;23;20008;-85
2022/07/02 04:35:30;;;;;;;9.00;3.70;;;;;;;12.69;86.59;102026.72;6194835;23;20019;-86
2022/07/02 04:37:55;;;;;;;8.30;3.80;;;;;;;12.75;87.14;102028.66;6219290;23;20017;-86
2022/07/02 04:40:20;;;;;;;6.73;3.47;;;;;;;12.80;86.02;102028.06;6219676;23;20015;-86
2022/07/02 04:42:46;;;;;;;7.80;3.93;;;;;;;12.89;85.71;102042.34;6194743;23;20542;-86
2022/07/02 04:45:11;;;;;;;8.17;3.37;;;;;;;12.92;85.37;102036.50;6219875;23;20008;-86
2022/07/02 04:47:37;;;;;;;9.67;4.00;;;;;;;13.01;85.51;102039.88;6194770;23;20451;-86
2022/07/02 04:50:02;;;;;;;10.83;3.53;;;;;;;13.04;84.80;102028.59;6194609;23;20434;-86
2022/07/02 04:52:28;;;;;;;13.82;3.72;;;;;;;13.07;84.89;102026.28;6194506;23;20039;-86
2022/07/02 04:54:53;;;;;;;6.63;3.20;;;;;;;13.12;85.41;102033.84;6219503;23;20012;-86
2022/07/02 04:57:19;;;;;;;7.27;3.60;;;;;;;13.14;85.41;102031.78;6219455;23;20093;-86
2022/07/02 04:59:44;;;;;;;8.33;3.80;;;;;;;13.20;84.48;102038.28;6220067;23;20012;-86
2022/07/02 05:02:11;;;;;;;9.00;3.23;;;;;;;13.24;84.62;102037.69;6219153;23;20696;-86
2022/07/02 05:04:37;;;;;;;4.93;3.25;;;;;;;13.30;84.58;102039.59;6195041;23;20095;-86
2022/07/02 05:07:05;;;;;;;10.80;3.13;;;;;;;13.35;83.54;102044.47;6194559;23;20374;-86
2022/07/02 05:09:30;;;;;;;8.43;3.47;;;;;;;13.39;83.11;102032.13;6194912;23;20471;-86
2022/07/02 05:11:56;;;;;;;7.05;3.42;;;;;;;13.41;82.79;102030.00;6220481;23;20053;-86
2022/07/02 05:14:22;;;;;;;6.10;3.30;;;;;;;13.42;82.17;102028.97;6246163;23;20007;-86
2022/07/02 05:16:47;;;;;;;9.03;3.03;;;;;;;13.46;83.27;102037.56;6219779;23;20097;-86
2022/07/02 05:19:12;;;;;;;8.32;3.30;;;;;;;13.51;82.91;102035.91;6194175;23;20008;-86
2022/07/02 05:21:40;;;;;;;11.93;3.60;;;;;;;13.54;83.01;102031.94;6219598;23;20327;-86
2022/07/02 05:24:05;;;;;;;12.07;3.67;;;;;;;13.59;82.51;102036.75;6195911;23;20004;-86
2022/07/02 05:26:31;;;;;;;6.13;3.00;;;;;;;13.63;81.84;102038.88;6194283;23;20019;-86
2022/07/02 05:28:57;;;;;;;9.73;3.47;;;;;;;13.69;82.05;102039.94;6219672;23;20000;-86
2022/07/02 05:31:22;;;;;;;6.47;2.67;;;;;;;13.75;82.27;102041.00;6219583;23;20012;-86
2022/07/02 05:33:50;;;;;;;6.20;3.27;;;;;;;13.78;80.32;102046.88;6194336;23;20004;-85
2022/07/02 05:36:15;;;;;;;6.57;3.53;;;;;;;13.81;80.13;102038.25;6219399;23;20430;-86
2022/07/02 05:38:41;;;;;;;7.63;2.77;;;;;;;13.88;79.17;102042.88;6220834;23;20011;-86
2022/07/02 05:41:07;;;;;;;4.95;2.50;;;;;;;13.95;79.28;102047.31;6196157;23;20016;-86
2022/07/02 05:43:32;;;;;;;3.97;2.67;;;;;;;14.02;80.68;102048.16;6221078;23;20015;-85
2022/07/02 05:45:58;;;;;;;8.63;3.00;;;;;;;14.09;79.00;102050.06;6221064;23;20000;-86
2022/07/02 05:48:23;;;;;;;5.30;2.73;;;;;;;14.16;78.90;102048.16;6222165;23;20019;-86
2022/07/02 05:50:49;;;;;;;7.87;2.80;;;;;;;14.25;78.11;102051.53;6247571;23;20450;-86
2022/07/02 05:53:14;;;;;;;7.65;2.63;;;;;;;14.31;78.12;102047.94;6196011;23;20015;-86
2022/07/02 05:55:39;;;;;;;2.57;2.10;;;;;;;14.36;76.57;102051.72;6247733;23;20000;-86
2022/07/02 05:58:05;;;;;;;7.20;2.13;;;;;;;14.44;76.08;102056.13;6221190;23;20336;-86
2022/07/02 06:00:30;;;;;;;4.47;2.10;;;;;;;14.53;76.04;102054.84;6195848;23;20040;-86
2022/07/02 06:02:56;;;;;;;6.80;2.08;;;;;;;14.61;76.07;102059.28;6220919;23;20011;-82
2022/07/02 06:08:05;;;;;;;4.85;2.13;;;;;;;14.82;76.04;102052.72;6225596;23;20066;-82
2022/07/02 06:10:31;;;;;;;4.53;1.53;;;;;;;14.97;74.30;102059.81;6195836;23;20012;-82
2022/07/02 06:12:56;;;;;;;3.33;1.90;;;;;;;15.05;72.71;102054.94;6195724;23;20008;-82
2022/07/02 06:15:22;;;;;;;5.63;1.60;;;;;;;15.22;72.86;102054.44;6220722;23;20008;-83
2022/07/02 06:17:47;;;;;;;4.90;1.95;;;;;;;15.34;72.74;102057.34;6221789;23;20034;-83
2022/07/02 06:20:14;;;;;;;5.93;1.90;;;;;;;15.48;71.50;102056.22;6220942;23;20008;-83
2022/07/02 06:22:39;;;;;;;3.28;1.70;;;;;;;15.73;69.05;102061.75;6220710;23;20094;-83
2022/07/02 06:25:07;;;;;;;2.10;1.33;;;;;;;16.06;67.54;102055.25;6220671;23;20098;-83
2022/07/02 06:27:34;;;;;;;4.45;1.30;;;;;;;16.36;66.57;102051.84;6220628;23;20004;-83
2022/07/02 06:30:04;;;;;;;4.20;1.50;;;;;;;16.61;65.99;102049.06;6196939;23;20012;-82
2022/07/02 06:32:29;;;;;;;4.80;1.30;;;;;;;16.69;63.55;102052.56;6220650;23;20016;-83
2022/07/02 06:34:55;;;;;;;4.13;1.00;;;;;;;16.71;62.15;102059.50;6195444;23;20441;-83
2022/07/02 06:37:21;;;;;;;5.45;1.08;;;;;;;16.66;60.11;102053.84;6247088;23;20012;-83
2022/07/02 06:39:46;;;;;;;2.87;0.80;;;;;;;16.60;60.40;102060.25;6221388;23;20069;-83
2022/07/02 06:42:22;;;;;;;3.87;0.87;;;;;;;16.52;59.55;102061.38;6220695;23;20004;-83
2022/07/02 06:44:53;;;;;;;2.57;0.97;;;;;;;16.58;60.11;102054.13;6247527;23;20285;-85
2022/07/02 06:47:19;;;;;;;2.88;0.88;;;;;;;16.66;59.96;102054.69;6247762;23;20079;-82
2022/07/02 06:49:45;;;;;;;3.08;0.80;;;;;;;16.73;56.40;102054.63;6220441;23;20008;-83
2022/07/02 06:52:11;;;;;;;2.27;1.10;;;;;;;16.74;59.39;102049.97;6220789;23;20015;-83
2022/07/02 06:54:37;;;;;;;3.53;0.80;;;;;;;16.71;58.25;102056.75;6247564;23;20007;-83
2022/07/02 06:57:03;;;;;;;2.63;0.60;;;;;;;16.67;58.10;102047.31;6220436;23;20012;-82
2022/07/02 06:59:29;;;;;;;1.90;0.53;;;;;;;16.62;51.81;102044.41;6247663;23;20008;-83
2022/07/02 07:01:55;;;;;;;2.35;0.70;;;;;;;16.60;57.09;102049.28;6221234;23;20046;-83
2022/07/02 07:04:20;;;;;;;3.87;0.90;;;;;;;16.58;58.28;102060.47;6220367;23;20422;-83
2022/07/02 07:09:11;;;;;;;3.88;1.08;;;;;;;16.58;56.75;102052.25;6195223;23;20379;-82
2022/07/02 07:11:36;;;;;;;3.77;0.67;;;;;;;16.60;58.37;102058.34;6220098;23;20005;-83
2022/07/02 07:14:02;;;;;;;2.07;0.93;;;;;;;16.62;59.16;102044.41;6195252;23;20386;-83
2022/07/02 07:16:27;;;;;;;3.77;0.90;;;;;;;16.65;57.94;102044.81;6220501;23;20008;-82
2022/07/02 07:18:58;;;;;;;1.38;0.70;;;;;;;16.73;58.21;102053.78;6195841;23;20406;-83
2022/07/02 07:21:24;;;;;;;2.40;0.80;;;;;;;16.79;57.32;102056.44;6221521;23;20008;-83
2022/07/02 07:23:49;;;;;;;3.15;0.70;;;;;;;16.83;57.76;102059.59;6220380;23;20000;-82
2022/07/02 07:26:14;;;;;;;5.10;0.80;;;;;;;16.84;58.03;102050.28;6247329;23;20008;-83
2022/07/02 07:28:40;;;;;;;2.07;0.70;;;;;;;16.91;58.72;102056.56;6220146;23;20335;-82
2022/07/02 07:31:05;;;;;;;2.83;0.80;;;;;;;16.99;58.14;102055.41;6194907;23;20410;-83
2022/07/02 07:33:31;;;;;;;2.45;0.90;;;;;;;17.03;57.55;102053.88;6195349;23;20012;-82
2022/07/02 07:35:57;;;;;;;4.63;1.00;;;;;;;17.07;57.87;102046.88;6219848;23;20004;-83
2022/07/02 07:38:23;;;;;;;3.40;0.90;;;;;;;17.16;57.29;102050.16;6194831;23;20382;-82
2022/07/02 07:40:48;;;;;;;1.37;0.80;;;;;;;17.23;58.39;102058.28;6194636;23;20004;-83
2022/07/02 07:43:13;;;;;;;2.13;0.80;;;;;;;17.28;57.62;102053.78;6195626;23;20038;-83
2022/07/02 07:45:39;;;;;;;1.88;0.80;;;;;;;17.34;56.40;102060.25;6194623;23;20019;-82
2022/07/02 07:48:05;;;;;;;3.17;1.03;;;;;;;17.39;56.65;102054.94;6220439;23;20008;-84
2022/07/02 07:50:30;;;;;;;2.43;0.73;;;;;;;17.44;57.53;102056.97;6219821;23;20082;-82
2022/07/02 07:52:55;;;;;;;3.25;0.60;;;;;;;17.48;57.75;102055.41;6169803;23;20012;-82
2022/07/02 07:55:21;;;;;;;2.30;0.80;;;;;;;17.65;57.85;102053.69;6219441;23;20087;-82
2022/07/02 07:57:46;;;;;;;3.73;1.03;;;;;;;17.80;55.38;102044.19;6220214;23;20008;-82
2022/07/02 08:00:12;;;;;;;1.57;1.00;;;;;;;17.83;55.38;102049.22;6219678;23;20108;-82
2022/07/02 08:02:37;;;;;;;4.72;1.00;;;;;;;17.78;55.29;102041.69;6194561;23;20061;-82
2022/07/02 08:05:03;;;;;;;3.33;0.80;;;;;;;17.84;54.38;102059.94;6246572;23;20015;-82
2022/07/02 08:07:28;;;;;;;3.20;0.90;;;;;;;17.86;53.21;102048.75;6219539;23;20012;-82
2022/07/02 08:09:54;;;;;;;3.40;1.07;;;;;;;17.88;54.40;102043.88;6219818;23;20058;-82
2022/07/02 08:12:23;;;;;;;3.28;1.02;;;;;;;17.88;55.86;102041.13;6219738;23;20091;-82
2022/07/02 08:14:48;;;;;;;3.38;0.90;;;;;;;17.94;55.68;102051.19;6220071;23;20084;-82
2022/07/02 08:17:14;;;;;;;5.97;1.00;;;;;;;17.97;56.48;102042.47;6246512;23;20004;-82
2022/07/02 08:19:40;;;;;;;4.70;1.00;;;;;;;18.00;55.54;102042.00;6195136;23;20047;-82
2022/07/02 08:22:05;;;;;;;3.03;1.10;;;;;;;18.01;54.46;102046.44;6220208;23;20375;-82
2022/07/02 08:24:31;;;;;;;2.13;0.73;;;;;;;18.02;53.69;102041.75;6219313;23;20017;-82
2022/07/02 08:26:56;;;;;;;1.92;0.80;;;;;;;18.05;54.03;102042.16;6220045;23;20083;-82
2022/07/02 08:29:21;;;;;;;2.93;0.90;;;;;;;18.08;54.79;102040.81;6194565;23;20008;-82
2022/07/02 08:31:47;;;;;;;2.87;1.00;;;;;;;18.12;54.68;102036.53;6219720;23;20011;-82
2022/07/02 08:34:12;;;;;;;4.93;1.20;;;;;;;18.16;54.28;102031.38;6246501;23;20091;-82
2022/07/02 08:36:38;;;;;;;3.08;1.00;;;;;;;18.19;53.93;102022.69;6194350;23;20074;-82
2022/07/02 08:39:04;;;;;;;2.90;0.90;;;;;;;18.29;54.31;102033.06;6194972;23;20449;-82
2022/07/02 08:41:30;;;;;;;3.97;1.10;;;;;;;18.37;54.15;102030.81;6219364;23;20448;-82
2022/07/02 08:43:56;;;;;;;4.53;1.52;;;;;;;18.46;54.45;102031.28;6219072;23;20095;-82
2022/07/02 08:46:24;;;;;;;2.03;1.02;;;;;;;18.54;54.17;102032.81;6219015;23;20008;-82
2022/07/02 08:48:50;;;;;;;4.05;1.20;;;;;;;18.57;53.83;102030.44;6219222;23;20032;-82
2022/07/02 08:51:20;;;;;;;2.95;1.00;;;;;;;18.64;54.51;102026.72;6219414;23;20004;-82
2022/07/02 08:53:46;;;;;;;2.90;0.97;;;;;;;18.73;54.49;102028.88;6246092;23;20060;-82
2022/07/02 08:56:13;;;;;;;4.78;1.15;;;;;;;18.81;54.14;102026.81;6194544;23;20038;-82
2022/07/02 08:58:38;;;;;;;4.65;1.10;;;;;;;18.88;54.70;102016.53;6219071;23;20379;-82
2022/07/02 09:01:05;;;;;;;4.43;1.00;;;;;;;18.98;54.27;102022.25;6246361;23;20062;-82
2022/07/02 09:03:32;;;;;;;7.67;1.30;;;;;;;19.09;53.63;102029.66;6194421;23;20008;-82
2022/07/02 09:05:58;;;;;;;5.18;1.20;;;;;;;19.19;53.13;102017.16;6194044;23;20018;-82
2022/07/02 09:08:24;;;;;;;1.85;1.08;;;;;;;19.28;53.23;102027.53;6219992;23;20032;-81
2022/07/02 09:10:52;;;;;;;5.32;1.30;;;;;;;19.32;52.95;102021.56;6219745;23;20012;-82
2022/07/02 09:13:17;;;;;;;2.80;1.40;;;;;;;19.35;53.24;102019.13;6247996;23;20079;-81
2022/07/02 09:15:45;;;;;;;4.78;1.48;;;;;;;19.37;52.36;102011.47;6220960;23;20464;-81
2022/07/02 09:18:11;;;;;;;4.60;1.30;;;;;;;19.45;54.06;102015.75;6248003;23;20011;-81
2022/07/02 09:20:37;;;;;;;7.47;1.80;;;;;;;19.54;53.44;102007.94;6196589;23;20437;-81
2022/07/02 09:23:07;;;;;;;5.57;1.60;;;;;;;19.55;52.24;101999.41;6222165;23;20004;-82
2022/07/02 09:25:33;;;;;;;1.92;1.13;;;;;;;19.66;53.96;102002.34;6196890;23;20091;-82
2022/07/02 09:28:04;;;;;;;3.73;1.20;;;;;;;19.83;53.95;101999.63;6221169;23;20372;-82
2022/07/02 09:30:36;;;;;;;4.10;1.27;;;;;;;19.99;53.55;101985.03;6195931;23;20020;-82
2022/07/02 09:35:59;;;;;;;1.90;1.02;;;;;;;20.24;49.91;101970.81;6222679;23;20330;-82
2022/07/02 09:38:24;;;;;;;3.03;1.27;;;;;;;20.37;50.64;101979.81;6247820;23;20065;-81
2022/07/02 09:40:57;;;;;;;3.90;1.42;;;;;;;20.39;49.37;101978.47;6247548;23;20083;-81
2022/07/02 09:43:30;;;;;;;5.22;1.30;;;;;;;20.33;49.06;101980.31;6196575;23;20437;-82
2022/07/02 09:45:58;;;;;;;3.57;1.30;;;;;;;20.28;48.68;101969.19;6247661;23;20011;-81
2022/07/02 09:48:23;;;;;;;3.47;1.23;;;;;;;20.35;49.91;101974.56;6248422;23;20015;-80
2022/07/02 09:50:49;;;;;;;5.07;1.60;;;;;;;20.37;48.19;101966.03;6247753;23;20426;-80
2022/07/02 09:53:15;;;;;;;4.93;1.27;;;;;;;20.40;49.81;101971.03;6221992;23;20239;-81
2022/07/02 09:55:49;;;;;;;1.83;1.00;;;;;;;20.56;50.76;101969.31;6247463;23;20008;-81
2022/07/02 09:58:23;;;;;;;2.60;1.20;;;;;;;20.68;48.15;101968.16;6248155;23;20437;-80
2022/07/02 10:00:49;;;;;;;3.13;1.48;;;;;;;20.85;48.42;101979.09;6220983;23;20012;-81
2022/07/02 10:03:14;;;;;;;5.93;1.57;;;;;;;21.09;47.13;101964.19;6248206;23;20031;-80
2022/07/02 10:05:44;;;;;;;3.40;1.23;;;;;;;21.29;47.36;101969.06;6221630;23;20062;-81
2022/07/02 10:08:10;;;;;;;3.67;1.20;;;;;;;21.20;47.61;101963.22;6196144;23;20103;-81
2022/07/02 10:10:38;;;;;;;2.35;1.20;;;;;;;21.24;48.09;101966.28;6220744;23;20012;-81
2022/07/02 10:13:06;;;;;;;3.47;1.30;;;;;;;21.45;45.92;101962.63;6220735;23;20023;-80
2022/07/02 10:15:33;;;;;;;2.17;1.20;;;;;;;21.82;46.01;101947.19;6247447;23;20000;-81
2022/07/02 10:18:06;;;;;;;4.30;1.30;;;;;;;22.15;46.68;101951.59;6221465;23;20008;-81
2022/07/02 10:20:33;;;;;;;3.72;1.10;;;;;;;22.21;45.39;101952.47;6222710;23;20083;-81
2022/07/02 10:23:06;;;;;;;3.00;1.08;;;;;;;22.28;45.32;101950.28;6221720;23;20005;-81
2022/07/02 10:25:33;;;;;;;5.50;1.00;;;;;;;22.37;43.56;101945.94;6247602;23;20011;-81
2022/07/02 10:27:59;;;;;;;3.17;1.20;;;;;;;22.67;43.82;101949.13;6247544;23;20095;-81
2022/07/02 10:30:33;;;;;;;2.65;1.20;;;;;;;22.58;43.24;101946.84;6220665;23;20008;-81
2022/07/02 10:33:30;;;;;;;3.58;1.10;;;;;;;22.81;43.02;101955.81;6247788;23;20008;-81
2022/07/02 10:35:59;;;;;;;2.47;1.07;;;;;;;23.48;42.58;101942.13;6221089;23;20306;-80
2022/07/02 10:38:34;;;;;;;3.20;0.90;;;;;;;24.01;40.75;101935.47;6247100;23;20008;-81
2022/07/02 10:41:01;;;;;;;3.60;1.10;;;;;;;24.29;39.22;101932.06;6247456;23;20016;-81
2022/07/02 10:43:30;;;;;;;4.03;1.40;;;;;;;24.42;38.57;101932.56;6220335;23;20327;-81
2022/07/02 10:46:09;;;;;;;4.22;1.10;;;;;;;24.24;39.02;101934.88;6247656;23;20415;-81
2022/07/02 10:48:46;;;;;;;1.60;1.00;;;;;;;24.33;38.41;101938.72;6247827;23;20012;-81
2022/07/02 10:51:18;;;;;;;5.57;1.15;;;;;;;24.68;37.16;101930.56;6221163;23;20478;-80
2022/07/02 10:53:49;;;;;;;4.18;1.25;;;;;;;24.35;37.06;101932.88;6247392;23;20086;-81
2022/07/02 10:56:14;;;;;;;1.90;1.10;;;;;;;24.21;37.00;101924.31;6220205;23;20004;-81
2022/07/02 10:58:40;;;;;;;3.50;1.30;;;;;;;24.16;37.07;101927.13;6195348;23;20095;-81
2022/07/02 11:01:16;;;;;;;3.10;1.40;;;;;;;24.66;37.98;101922.50;6195088;23;20414;-81
2022/07/02 11:03:51;;;;;;;3.30;1.30;;;;;;;24.86;36.11;101927.13;6197288;23;20033;-81
2022/07/02 11:06:23;;;;;;;3.78;1.00;;;;;;;25.06;37.46;101922.56;6220286;23;20011;-81
2022/07/02 11:08:51;;;;;;;2.65;0.90;;;;;;;25.41;34.19;101922.63;6247079;23;20008;-81
2022/07/02 11:11:20;;;;;;;1.47;0.90;;;;;;;25.89;34.05;101912.44;6220160;23;20042;-81
2022/07/02 11:13:54;;;;;;;2.65;0.90;;;;;;;26.48;33.00;101919.88;6219640;23;20008;-81
2022/07/02 11:16:38;;;;;;;4.40;1.00;;;;;;;27.33;33.67;101920.94;6247148;23;20008;-81
2022/07/02 11:19:05;;;;;;;2.28;0.90;;;;;;;26.97;30.38;101918.66;6197340;23;20004;-81
2022/07/02 11:21:31;;;;;;;3.42;1.05;;;;;;;26.81;31.27;101911.69;6220031;23;20008;-81
2022/07/02 11:23:57;;;;;;;3.10;1.00;;;;;;;27.58;30.01;101907.69;6220070;23;20054;-81
2022/07/02 11:26:25;;;;;;;4.72;1.20;;;;;;;28.48;28.48;101899.84;6219992;23;20012;-81
2022/07/02 11:28:52;;;;;;;4.80;1.00;;;;;;;29.93;27.02;101897.22;6220128;23;20032;-84
2022/07/02 11:31:21;;;;;;;2.53;1.02;;;;;;;30.94;24.31;101896.47;6194931;23;20043;-85
2022/07/02 11:33:49;;;;;;;2.65;1.00;;;;;;;30.56;23.53;101891.47;6194919;23;20008;-84